sensor_id;sensor_type;location;lat;lon;timestamp;P1;durP1;ratioP1;P2;durP2;ratioP2
30515;SDS011;17297;54.022;10.760;2023-06-24T00:01:43;2.60;;;2.40;;
30515;SDS011;17297;54.022;10.760;2023-06-24T00:04:08;4.25;;;2.72;;
30515;SDS011;17297;54.022;10.760;2023-06-24T00:06:34;2.75;;;2.53;;
30515;SDS011;17297;54.022;10.760;2023-06-24T00:08:59;3.10;;;2.45;;
30515;SDS011;17297;54.022;10.760;2023-06-24T00:11:28;3.28;;;2.10;;
30515;SDS011;17297;54.022;10.760;2023-06-24T00:13:54;3.65;;;2.63;;
30515;SDS011;17297;54.022;10.760;2023-06-24T00:16:19;2.63;;;2.42;;
30515;SDS011;17297;54.022;10.760;2023-06-24T00:18:51;3.55;;;2.50;;
30515;SDS011;17297;54.022;10.760;2023-06-24T00:21:18;2.40;;;1.85;;
30515;SDS011;17297;54.022;10.760;2023-06-24T00:23:44;2.63;;;2.25;;
30515;SDS011;17297;54.022;10.760;2023-06-24T00:26:10;2.30;;;1.95;;
30515;SDS011;17297;54.022;10.760;2023-06-24T00:28:35;2.80;;;2.60;;
30515;SDS011;17297;54.022;10.760;2023-06-24T00:31:01;5.72;;;3.10;;
30515;SDS011;17297;54.022;10.760;2023-06-24T00:33:28;3.25;;;2.92;;
30515;SDS011;17297;54.022;10.760;2023-06-24T00:35:53;3.25;;;2.83;;
30515;SDS011;17297;54.022;10.760;2023-06-24T00:38:20;2.72;;;2.50;;
30515;SDS011;17297;54.022;10.760;2023-06-24T00:40:45;3.58;;;2.95;;
30515;SDS011;17297;54.022;10.760;2023-06-24T00:43:11;4.05;;;2.63;;
30515;SDS011;17297;54.022;10.760;2023-06-24T00:45:36;4.20;;;2.50;;
30515;SDS011;17297;54.022;10.760;2023-06-24T00:48:02;4.53;;;2.53;;
30515;SDS011;17297;54.022;10.760;2023-06-24T00:50:28;3.75;;;2.45;;
30515;SDS011;17297;54.022;10.760;2023-06-24T00:52:54;3.53;;;2.47;;
30515;SDS011;17297;54.022;10.760;2023-06-24T00:55:19;2.63;;;2.22;;
30515;SDS011;17297;54.022;10.760;2023-06-24T00:57:49;2.83;;;2.58;;
30515;SDS011;17297;54.022;10.760;2023-06-24T01:00:18;3.08;;;2.78;;
30515;SDS011;17297;54.022;10.760;2023-06-24T01:02:46;2.97;;;2.45;;
30515;SDS011;17297;54.022;10.760;2023-06-24T01:05:12;4.95;;;3.30;;
30515;SDS011;17297;54.022;10.760;2023-06-24T01:07:38;5.55;;;2.67;;
30515;SDS011;17297;54.022;10.760;2023-06-24T01:10:04;2.90;;;2.60;;
30515;SDS011;17297;54.022;10.760;2023-06-24T01:12:38;3.50;;;3.20;;
30515;SDS011;17297;54.022;10.760;2023-06-24T01:15:08;5.65;;;3.08;;
30515;SDS011;17297;54.022;10.760;2023-06-24T01:17:36;3.30;;;2.75;;
30515;SDS011;17297;54.022;10.760;2023-06-24T01:33:46;5.57;;;3.00;;
30515;SDS011;17297;54.022;10.760;2023-06-24T01:36:18;2.60;;;2.40;;
30515;SDS011;17297;54.022;10.760;2023-06-24T01:38:51;4.03;;;2.85;;
30515;SDS011;17297;54.022;10.760;2023-06-24T01:41:21;2.55;;;2.35;;
30515;SDS011;17297;54.022;10.760;2023-06-24T01:43:50;2.65;;;2.45;;
30515;SDS011;17297;54.022;10.760;2023-06-24T01:46:20;3.60;;;2.40;;
30515;SDS011;17297;54.022;10.760;2023-06-24T01:48:47;3.20;;;2.72;;
30515;SDS011;17297;54.022;10.760;2023-06-24T01:51:17;3.15;;;2.65;;
30515;SDS011;17297;54.022;10.760;2023-06-24T01:53:48;3.33;;;2.63;;
30515;SDS011;17297;54.022;10.760;2023-06-24T01:56:17;3.72;;;2.72;;
30515;SDS011;17297;54.022;10.760;2023-06-24T01:58:47;3.67;;;3.00;;
30515;SDS011;17297;54.022;10.760;2023-06-24T02:01:17;3.22;;;2.72;;
30515;SDS011;17297;54.022;10.760;2023-06-24T02:03:43;2.47;;;2.20;;
30515;SDS011;17297;54.022;10.760;2023-06-24T02:06:09;3.30;;;2.72;;
30515;SDS011;17297;54.022;10.760;2023-06-24T02:08:37;3.85;;;3.40;;
30515;SDS011;17297;54.022;10.760;2023-06-24T02:11:04;3.83;;;3.13;;
30515;SDS011;17297;54.022;10.760;2023-06-24T02:13:33;3.00;;;2.40;;
30515;SDS011;17297;54.022;10.760;2023-06-24T02:16:01;3.67;;;3.30;;
30515;SDS011;17297;54.022;10.760;2023-06-24T02:18:29;3.47;;;2.88;;
30515;SDS011;17297;54.022;10.760;2023-06-24T02:20:55;6.15;;;2.75;;
30515;SDS011;17297;54.022;10.760;2023-06-24T02:23:21;3.00;;;2.80;;
30515;SDS011;17297;54.022;10.760;2023-06-24T02:25:49;3.13;;;2.67;;
30515;SDS011;17297;54.022;10.760;2023-06-24T02:28:15;3.85;;;2.97;;
30515;SDS011;17297;54.022;10.760;2023-06-24T02:30:42;3.55;;;3.20;;
30515;SDS011;17297;54.022;10.760;2023-06-24T02:33:10;3.78;;;3.05;;
30515;SDS011;17297;54.022;10.760;2023-06-24T02:35:37;4.35;;;2.90;;
30515;SDS011;17297;54.022;10.760;2023-06-24T02:38:02;3.30;;;2.80;;
30515;SDS011;17297;54.022;10.760;2023-06-24T02:40:28;5.40;;;3.70;;
30515;SDS011;17297;54.022;10.760;2023-06-24T02:42:54;3.85;;;3.45;;
30515;SDS011;17297;54.022;10.760;2023-06-24T02:45:19;6.05;;;4.03;;
30515;SDS011;17297;54.022;10.760;2023-06-24T02:47:46;3.83;;;3.35;;
30515;SDS011;17297;54.022;10.760;2023-06-24T02:50:12;3.65;;;3.22;;
30515;SDS011;17297;54.022;10.760;2023-06-24T02:52:39;4.72;;;3.80;;
30515;SDS011;17297;54.022;10.760;2023-06-24T02:55:08;3.45;;;3.15;;
30515;SDS011;17297;54.022;10.760;2023-06-24T02:57:36;5.13;;;3.47;;
30515;SDS011;17297;54.022;10.760;2023-06-24T03:00:27;7.97;;;3.25;;
30515;SDS011;17297;54.022;10.760;2023-06-24T03:03:16;6.57;;;2.85;;
30515;SDS011;17297;54.022;10.760;2023-06-24T03:05:54;5.85;;;3.47;;
30515;SDS011;17297;54.022;10.760;2023-06-24T03:08:22;4.38;;;2.83;;
30515;SDS011;17297;54.022;10.760;2023-06-24T03:10:50;3.70;;;2.97;;
30515;SDS011;17297;54.022;10.760;2023-06-24T03:13:21;4.13;;;3.25;;
30515;SDS011;17297;54.022;10.760;2023-06-24T03:15:57;3.10;;;2.80;;
30515;SDS011;17297;54.022;10.760;2023-06-24T03:18:24;3.42;;;3.13;;
30515;SDS011;17297;54.022;10.760;2023-06-24T03:20:49;4.22;;;3.33;;
30515;SDS011;17297;54.022;10.760;2023-06-24T03:23:18;3.90;;;3.47;;
30515;SDS011;17297;54.022;10.760;2023-06-24T03:25:44;5.18;;;3.40;;
30515;SDS011;17297;54.022;10.760;2023-06-24T03:28:11;3.70;;;3.25;;
30515;SDS011;17297;54.022;10.760;2023-06-24T03:30:43;3.97;;;3.42;;
30515;SDS011;17297;54.022;10.760;2023-06-24T03:33:11;5.25;;;3.17;;
30515;SDS011;17297;54.022;10.760;2023-06-24T03:35:43;3.90;;;2.70;;
30515;SDS011;17297;54.022;10.760;2023-06-24T03:38:12;3.50;;;2.88;;
30515;SDS011;17297;54.022;10.760;2023-06-24T03:40:37;5.85;;;3.50;;
30515;SDS011;17297;54.022;10.760;2023-06-24T03:43:03;5.15;;;3.42;;
30515;SDS011;17297;54.022;10.760;2023-06-24T03:45:28;4.90;;;3.78;;
30515;SDS011;17297;54.022;10.760;2023-06-24T03:47:53;3.55;;;3.25;;
30515;SDS011;17297;54.022;10.760;2023-06-24T03:50:19;4.00;;;3.22;;
30515;SDS011;17297;54.022;10.760;2023-06-24T03:52:44;4.00;;;3.00;;
30515;SDS011;17297;54.022;10.760;2023-06-24T03:55:11;4.65;;;3.30;;
30515;SDS011;17297;54.022;10.760;2023-06-24T03:57:36;4.95;;;3.17;;
30515;SDS011;17297;54.022;10.760;2023-06-24T04:00:02;4.65;;;3.65;;
30515;SDS011;17297;54.022;10.760;2023-06-24T04:02:38;3.97;;;3.03;;
30515;SDS011;17297;54.022;10.760;2023-06-24T04:05:03;5.93;;;3.50;;
30515;SDS011;17297;54.022;10.760;2023-06-24T04:07:31;3.22;;;2.92;;
30515;SDS011;17297;54.022;10.760;2023-06-24T04:09:57;3.97;;;3.15;;
30515;SDS011;17297;54.022;10.760;2023-06-24T04:12:22;3.78;;;3.00;;
30515;SDS011;17297;54.022;10.760;2023-06-24T04:14:48;4.25;;;3.20;;
30515;SDS011;17297;54.022;10.760;2023-06-24T04:17:13;3.55;;;2.83;;
30515;SDS011;17297;54.022;10.760;2023-06-24T04:19:39;5.45;;;3.08;;
30515;SDS011;17297;54.022;10.760;2023-06-24T04:22:04;4.10;;;3.30;;
30515;SDS011;17297;54.022;10.760;2023-06-24T04:24:30;3.47;;;3.17;;
30515;SDS011;17297;54.022;10.760;2023-06-24T04:26:55;4.78;;;3.60;;
30515;SDS011;17297;54.022;10.760;2023-06-24T04:29:21;4.00;;;3.30;;
30515;SDS011;17297;54.022;10.760;2023-06-24T04:31:46;4.65;;;3.50;;
30515;SDS011;17297;54.022;10.760;2023-06-24T04:34:11;3.38;;;3.08;;
30515;SDS011;17297;54.022;10.760;2023-06-24T04:36:37;3.90;;;3.25;;
30515;SDS011;17297;54.022;10.760;2023-06-24T04:39:03;3.38;;;2.88;;
30515;SDS011;17297;54.022;10.760;2023-06-24T04:41:29;4.15;;;3.05;;
30515;SDS011;17297;54.022;10.760;2023-06-24T04:43:54;3.63;;;3.13;;
30515;SDS011;17297;54.022;10.760;2023-06-24T04:46:19;3.90;;;3.08;;
30515;SDS011;17297;54.022;10.760;2023-06-24T04:48:45;3.28;;;2.97;;
30515;SDS011;17297;54.022;10.760;2023-06-24T04:51:10;3.30;;;3.00;;
30515;SDS011;17297;54.022;10.760;2023-06-24T04:53:36;3.47;;;3.10;;
30515;SDS011;17297;54.022;10.760;2023-06-24T04:56:01;3.72;;;2.88;;
30515;SDS011;17297;54.022;10.760;2023-06-24T04:58:26;3.30;;;3.00;;
30515;SDS011;17297;54.022;10.760;2023-06-24T05:00:52;3.15;;;2.83;;
30515;SDS011;17297;54.022;10.760;2023-06-24T05:03:18;3.90;;;3.55;;
30515;SDS011;17297;54.022;10.760;2023-06-24T05:05:44;4.43;;;2.92;;
30515;SDS011;17297;54.022;10.760;2023-06-24T05:08:09;6.38;;;3.65;;
30515;SDS011;17297;54.022;10.760;2023-06-24T05:10:34;3.45;;;3.15;;
30515;SDS011;17297;54.022;10.760;2023-06-24T05:13:00;5.45;;;3.55;;
30515;SDS011;17297;54.022;10.760;2023-06-24T05:15:25;5.15;;;3.83;;
30515;SDS011;17297;54.022;10.760;2023-06-24T05:17:50;3.78;;;2.72;;
30515;SDS011;17297;54.022;10.760;2023-06-24T05:20:15;4.57;;;3.00;;
30515;SDS011;17297;54.022;10.760;2023-06-24T05:22:42;3.22;;;2.92;;
30515;SDS011;17297;54.022;10.760;2023-06-24T05:25:08;3.72;;;3.03;;
30515;SDS011;17297;54.022;10.760;2023-06-24T05:27:35;3.47;;;2.88;;
30515;SDS011;17297;54.022;10.760;2023-06-24T05:30:01;3.72;;;3.08;;
30515;SDS011;17297;54.022;10.760;2023-06-24T05:32:26;2.88;;;2.60;;
30515;SDS011;17297;54.022;10.760;2023-06-24T05:34:51;5.55;;;3.20;;
30515;SDS011;17297;54.022;10.760;2023-06-24T05:37:17;4.45;;;3.10;;
30515;SDS011;17297;54.022;10.760;2023-06-24T05:39:42;4.47;;;2.50;;
30515;SDS011;17297;54.022;10.760;2023-06-24T05:42:08;3.10;;;2.80;;
30515;SDS011;17297;54.022;10.760;2023-06-24T05:44:33;4.50;;;2.45;;
30515;SDS011;17297;54.022;10.760;2023-06-24T05:46:58;4.32;;;2.40;;
30515;SDS011;17297;54.022;10.760;2023-06-24T05:49:24;2.67;;;2.45;;
30515;SDS011;17297;54.022;10.760;2023-06-24T05:51:49;4.18;;;3.33;;
30515;SDS011;17297;54.022;10.760;2023-06-24T05:54:15;3.13;;;2.65;;
30515;SDS011;17297;54.022;10.760;2023-06-24T05:56:40;3.20;;;2.70;;
30515;SDS011;17297;54.022;10.760;2023-06-24T05:59:05;2.95;;;2.25;;
30515;SDS011;17297;54.022;10.760;2023-06-24T06:01:31;3.05;;;2.50;;
30515;SDS011;17297;54.022;10.760;2023-06-24T06:03:56;2.55;;;2.35;;
30515;SDS011;17297;54.022;10.760;2023-06-24T06:06:21;3.33;;;2.30;;
30515;SDS011;17297;54.022;10.760;2023-06-24T06:08:47;3.03;;;2.30;;
30515;SDS011;17297;54.022;10.760;2023-06-24T06:11:12;2.72;;;2.13;;
30515;SDS011;17297;54.022;10.760;2023-06-24T06:13:38;2.80;;;2.50;;
30515;SDS011;17297;54.022;10.760;2023-06-24T06:16:03;2.50;;;2.30;;
30515;SDS011;17297;54.022;10.760;2023-06-24T06:18:29;3.15;;;2.17;;
30515;SDS011;17297;54.022;10.760;2023-06-24T06:20:54;3.38;;;2.72;;
30515;SDS011;17297;54.022;10.760;2023-06-24T06:23:20;3.20;;;2.28;;
30515;SDS011;17297;54.022;10.760;2023-06-24T06:25:45;3.67;;;2.22;;
30515;SDS011;17297;54.022;10.760;2023-06-24T06:28:11;3.33;;;3.03;;
30515;SDS011;17297;54.022;10.760;2023-06-24T06:30:36;2.70;;;2.40;;
30515;SDS011;17297;54.022;10.760;2023-06-24T06:33:02;2.58;;;2.33;;
30515;SDS011;17297;54.022;10.760;2023-06-24T06:35:27;3.67;;;2.33;;
30515;SDS011;17297;54.022;10.760;2023-06-24T06:37:54;4.72;;;2.25;;
30515;SDS011;17297;54.022;10.760;2023-06-24T06:40:20;3.55;;;3.20;;
30515;SDS011;17297;54.022;10.760;2023-06-24T06:42:46;2.80;;;2.60;;
30515;SDS011;17297;54.022;10.760;2023-06-24T06:45:11;2.95;;;2.63;;
30515;SDS011;17297;54.022;10.760;2023-06-24T06:47:37;3.58;;;3.10;;
30515;SDS011;17297;54.022;10.760;2023-06-24T06:50:02;2.88;;;2.38;;
30515;SDS011;17297;54.022;10.760;2023-06-24T06:52:28;3.13;;;2.85;;
30515;SDS011;17297;54.022;10.760;2023-06-24T06:54:54;2.65;;;2.17;;
30515;SDS011;17297;54.022;10.760;2023-06-24T06:57:19;5.28;;;2.63;;
30515;SDS011;17297;54.022;10.760;2023-06-24T06:59:45;2.17;;;1.95;;
30515;SDS011;17297;54.022;10.760;2023-06-24T07:02:12;2.72;;;2.50;;
30515;SDS011;17297;54.022;10.760;2023-06-24T07:04:37;3.00;;;2.55;;
30515;SDS011;17297;54.022;10.760;2023-06-24T07:07:02;3.10;;;2.53;;
30515;SDS011;17297;54.022;10.760;2023-06-24T07:09:28;3.08;;;2.20;;
30515;SDS011;17297;54.022;10.760;2023-06-24T07:11:53;2.70;;;2.47;;
30515;SDS011;17297;54.022;10.760;2023-06-24T07:14:18;2.90;;;2.38;;
30515;SDS011;17297;54.022;10.760;2023-06-24T07:16:44;3.95;;;2.60;;
30515;SDS011;17297;54.022;10.760;2023-06-24T07:19:09;2.90;;;2.30;;
30515;SDS011;17297;54.022;10.760;2023-06-24T07:21:34;3.17;;;2.28;;
30515;SDS011;17297;54.022;10.760;2023-06-24T07:24:00;3.22;;;2.20;;
30515;SDS011;17297;54.022;10.760;2023-06-24T07:26:25;3.03;;;2.60;;
30515;SDS011;17297;54.022;10.760;2023-06-24T07:28:55;2.72;;;2.10;;
30515;SDS011;17297;54.022;10.760;2023-06-24T07:31:22;3.90;;;2.63;;
30515;SDS011;17297;54.022;10.760;2023-06-24T07:33:47;2.78;;;2.55;;
30515;SDS011;17297;54.022;10.760;2023-06-24T07:36:13;4.43;;;3.20;;
30515;SDS011;17297;54.022;10.760;2023-06-24T07:38:38;3.03;;;2.45;;
30515;SDS011;17297;54.022;10.760;2023-06-24T07:41:04;3.30;;;2.10;;
30515;SDS011;17297;54.022;10.760;2023-06-24T07:43:29;2.35;;;2.15;;
30515;SDS011;17297;54.022;10.760;2023-06-24T07:45:55;2.40;;;2.17;;
30515;SDS011;17297;54.022;10.760;2023-06-24T07:48:20;2.90;;;1.95;;
30515;SDS011;17297;54.022;10.760;2023-06-24T07:50:46;2.33;;;2.08;;
30515;SDS011;17297;54.022;10.760;2023-06-24T07:53:11;2.65;;;1.92;;
30515;SDS011;17297;54.022;10.760;2023-06-24T07:55:37;1.92;;;1.80;;
30515;SDS011;17297;54.022;10.760;2023-06-24T07:58:02;2.53;;;2.10;;
30515;SDS011;17297;54.022;10.760;2023-06-24T08:00:28;3.28;;;2.03;;
30515;SDS011;17297;54.022;10.760;2023-06-24T08:02:53;3.17;;;2.50;;
30515;SDS011;17297;54.022;10.760;2023-06-24T08:05:20;2.03;;;1.90;;
30515;SDS011;17297;54.022;10.760;2023-06-24T08:07:46;2.55;;;2.33;;
30515;SDS011;17297;54.022;10.760;2023-06-24T08:10:11;2.58;;;2.38;;
30515;SDS011;17297;54.022;10.760;2023-06-24T08:12:36;2.13;;;1.73;;
30515;SDS011;17297;54.022;10.760;2023-06-24T08:15:02;3.65;;;2.08;;
30515;SDS011;17297;54.022;10.760;2023-06-24T08:17:27;3.00;;;1.95;;
30515;SDS011;17297;54.022;10.760;2023-06-24T08:19:53;2.33;;;2.08;;
30515;SDS011;17297;54.022;10.760;2023-06-24T08:22:18;2.42;;;2.00;;
30515;SDS011;17297;54.022;10.760;2023-06-24T08:24:44;2.30;;;2.10;;
30515;SDS011;17297;54.022;10.760;2023-06-24T08:27:09;4.05;;;2.30;;
30515;SDS011;17297;54.022;10.760;2023-06-24T08:29:35;3.45;;;2.25;;
30515;SDS011;17297;54.022;10.760;2023-06-24T08:32:01;2.55;;;2.00;;
30515;SDS011;17297;54.022;10.760;2023-06-24T08:34:26;2.03;;;1.83;;
30515;SDS011;17297;54.022;10.760;2023-06-24T08:36:52;2.08;;;1.83;;
30515;SDS011;17297;54.022;10.760;2023-06-24T08:39:17;4.50;;;1.65;;
30515;SDS011;17297;54.022;10.760;2023-06-24T08:41:42;2.05;;;1.70;;
30515;SDS011;17297;54.022;10.760;2023-06-24T08:44:08;2.13;;;1.75;;
30515;SDS011;17297;54.022;10.760;2023-06-24T08:46:33;1.98;;;1.80;;
30515;SDS011;17297;54.022;10.760;2023-06-24T08:54:50;2.13;;;1.93;;
30515;SDS011;17297;54.022;10.760;2023-06-24T08:57:16;2.22;;;2.00;;
30515;SDS011;17297;54.022;10.760;2023-06-24T08:59:43;4.72;;;1.45;;
30515;SDS011;17297;54.022;10.760;2023-06-24T09:02:09;1.95;;;1.55;;
30515;SDS011;17297;54.022;10.760;2023-06-24T09:04:36;2.90;;;2.38;;
30515;SDS011;17297;54.022;10.760;2023-06-24T09:07:01;1.77;;;1.67;;
30515;SDS011;17297;54.022;10.760;2023-06-24T09:09:28;1.83;;;1.48;;
30515;SDS011;17297;54.022;10.760;2023-06-24T09:12:00;1.90;;;1.67;;
30515;SDS011;17297;54.022;10.760;2023-06-24T09:14:27;2.60;;;1.83;;
30515;SDS011;17297;54.022;10.760;2023-06-24T09:16:56;1.58;;;1.40;;
30515;SDS011;17297;54.022;10.760;2023-06-24T09:19:23;2.17;;;1.75;;
30515;SDS011;17297;54.022;10.760;2023-06-24T09:21:50;1.63;;;1.52;;
30515;SDS011;17297;54.022;10.760;2023-06-24T09:24:17;2.30;;;1.63;;
30515;SDS011;17297;54.022;10.760;2023-06-24T09:26:43;2.30;;;1.75;;
30515;SDS011;17297;54.022;10.760;2023-06-24T09:29:12;1.42;;;1.33;;
30515;SDS011;17297;54.022;10.760;2023-06-24T09:31:48;2.10;;;1.90;;
30515;SDS011;17297;54.022;10.760;2023-06-24T09:34:14;1.55;;;1.42;;
30515;SDS011;17297;54.022;10.760;2023-06-24T09:36:44;1.77;;;1.58;;
30515;SDS011;17297;54.022;10.760;2023-06-24T09:39:10;1.70;;;1.60;;
30515;SDS011;17297;54.022;10.760;2023-06-24T09:41:40;1.70;;;1.60;;
30515;SDS011;17297;54.022;10.760;2023-06-24T09:44:12;2.30;;;1.90;;
30515;SDS011;17297;54.022;10.760;2023-06-24T09:46:38;1.77;;;1.52;;
30515;SDS011;17297;54.022;10.760;2023-06-24T09:49:05;3.47;;;1.88;;
30515;SDS011;17297;54.022;10.760;2023-06-24T09:51:36;2.70;;;1.85;;
30515;SDS011;17297;54.022;10.760;2023-06-24T09:54:04;2.45;;;2.20;;
30515;SDS011;17297;54.022;10.760;2023-06-24T09:56:31;3.15;;;2.20;;
30515;SDS011;17297;54.022;10.760;2023-06-24T09:59:05;2.55;;;1.95;;
30515;SDS011;17297;54.022;10.760;2023-06-24T10:01:36;5.50;;;2.60;;
30515;SDS011;17297;54.022;10.760;2023-06-24T10:04:04;2.03;;;1.85;;
30515;SDS011;17297;54.022;10.760;2023-06-24T10:06:32;2.92;;;2.05;;
30515;SDS011;17297;54.022;10.760;2023-06-24T10:08:59;2.30;;;2.10;;
30515;SDS011;17297;54.022;10.760;2023-06-24T10:11:25;2.33;;;1.80;;
30515;SDS011;17297;54.022;10.760;2023-06-24T10:13:51;3.30;;;2.30;;
30515;SDS011;17297;54.022;10.760;2023-06-24T10:16:17;2.78;;;2.50;;
30515;SDS011;17297;54.022;10.760;2023-06-24T10:18:43;3.38;;;2.13;;
30515;SDS011;17297;54.022;10.760;2023-06-24T10:21:10;3.58;;;2.33;;
30515;SDS011;17297;54.022;10.760;2023-06-24T10:23:42;3.28;;;2.25;;
30515;SDS011;17297;54.022;10.760;2023-06-24T10:26:31;2.22;;;1.77;;
30515;SDS011;17297;54.022;10.760;2023-06-24T10:39:45;2.40;;;2.10;;
30515;SDS011;17297;54.022;10.760;2023-06-24T10:47:25;2.28;;;2.05;;
30515;SDS011;17297;54.022;10.760;2023-06-24T10:49:51;3.35;;;2.55;;
30515;SDS011;17297;54.022;10.760;2023-06-24T10:52:18;2.28;;;1.90;;
30515;SDS011;17297;54.022;10.760;2023-06-24T10:54:46;3.88;;;2.30;;
30515;SDS011;17297;54.022;10.760;2023-06-24T10:57:12;2.45;;;1.90;;
30515;SDS011;17297;54.022;10.760;2023-06-24T10:59:47;2.33;;;2.10;;
30515;SDS011;17297;54.022;10.760;2023-06-24T11:02:14;2.08;;;1.88;;
30515;SDS011;17297;54.022;10.760;2023-06-24T11:04:48;2.30;;;2.03;;
30515;SDS011;17297;54.022;10.760;2023-06-24T11:07:16;2.83;;;1.85;;
30515;SDS011;17297;54.022;10.760;2023-06-24T11:09:47;2.63;;;2.38;;
30515;SDS011;17297;54.022;10.760;2023-06-24T11:12:17;1.83;;;1.73;;
30515;SDS011;17297;54.022;10.760;2023-06-24T11:14:44;2.28;;;2.00;;
30515;SDS011;17297;54.022;10.760;2023-06-24T11:17:10;2.00;;;1.83;;
30515;SDS011;17297;54.022;10.760;2023-06-24T11:19:36;2.28;;;1.83;;
30515;SDS011;17297;54.022;10.760;2023-06-24T11:22:04;2.58;;;1.77;;
30515;SDS011;17297;54.022;10.760;2023-06-24T11:24:30;2.03;;;1.83;;
30515;SDS011;17297;54.022;10.760;2023-06-24T11:26:56;2.67;;;2.30;;
30515;SDS011;17297;54.022;10.760;2023-06-24T11:29:22;2.95;;;2.03;;
30515;SDS011;17297;54.022;10.760;2023-06-24T11:31:48;2.50;;;2.10;;
30515;SDS011;17297;54.022;10.760;2023-06-24T11:34:15;2.63;;;2.30;;
30515;SDS011;17297;54.022;10.760;2023-06-24T11:36:40;2.55;;;1.98;;
30515;SDS011;17297;54.022;10.760;2023-06-24T11:39:06;3.75;;;2.28;;
30515;SDS011;17297;54.022;10.760;2023-06-24T11:41:31;2.13;;;1.83;;
30515;SDS011;17297;54.022;10.760;2023-06-24T11:43:57;2.15;;;1.95;;
30515;SDS011;17297;54.022;10.760;2023-06-24T11:46:27;3.20;;;2.30;;
30515;SDS011;17297;54.022;10.760;2023-06-24T11:49:03;2.70;;;2.15;;
30515;SDS011;17297;54.022;10.760;2023-06-24T11:51:32;2.30;;;1.80;;
30515;SDS011;17297;54.022;10.760;2023-06-24T11:53:59;2.10;;;1.85;;
30515;SDS011;17297;54.022;10.760;2023-06-24T11:56:37;1.98;;;1.83;;
30515;SDS011;17297;54.022;10.760;2023-06-24T11:59:14;2.70;;;2.42;;
30515;SDS011;17297;54.022;10.760;2023-06-24T12:01:43;2.08;;;1.88;;
30515;SDS011;17297;54.022;10.760;2023-06-24T12:04:12;2.42;;;2.10;;
30515;SDS011;17297;54.022;10.760;2023-06-24T12:06:42;2.15;;;1.92;;
30515;SDS011;17297;54.022;10.760;2023-06-24T12:09:08;2.95;;;2.30;;
30515;SDS011;17297;54.022;10.760;2023-06-24T12:11:34;2.22;;;2.03;;
30515;SDS011;17297;54.022;10.760;2023-06-24T12:14:00;2.33;;;2.13;;
30515;SDS011;17297;54.022;10.760;2023-06-24T12:16:25;2.47;;;2.05;;
30515;SDS011;17297;54.022;10.760;2023-06-24T12:18:51;2.30;;;2.05;;
30515;SDS011;17297;54.022;10.760;2023-06-24T12:21:17;2.85;;;2.17;;
30515;SDS011;17297;54.022;10.760;2023-06-24T12:23:43;4.60;;;3.00;;
30515;SDS011;17297;54.022;10.760;2023-06-24T12:26:08;1.92;;;1.80;;
30515;SDS011;17297;54.022;10.760;2023-06-24T12:28:34;2.53;;;2.33;;
30515;SDS011;17297;54.022;10.760;2023-06-24T12:30:59;2.75;;;2.47;;
30515;SDS011;17297;54.022;10.760;2023-06-24T12:33:25;2.53;;;2.33;;
30515;SDS011;17297;54.022;10.760;2023-06-24T12:35:50;2.60;;;2.30;;
30515;SDS011;17297;54.022;10.760;2023-06-24T12:38:16;7.22;;;2.72;;
30515;SDS011;17297;54.022;10.760;2023-06-24T12:40:41;3.00;;;2.60;;
30515;SDS011;17297;54.022;10.760;2023-06-24T12:43:07;2.33;;;2.00;;
30515;SDS011;17297;54.022;10.760;2023-06-24T12:45:33;2.85;;;2.40;;
30515;SDS011;17297;54.022;10.760;2023-06-24T12:47:59;2.90;;;2.70;;
30515;SDS011;17297;54.022;10.760;2023-06-24T12:50:24;2.10;;;1.95;;
30515;SDS011;17297;54.022;10.760;2023-06-24T12:52:50;2.55;;;2.17;;
30515;SDS011;17297;54.022;10.760;2023-06-24T12:55:15;3.00;;;2.40;;
30515;SDS011;17297;54.022;10.760;2023-06-24T12:57:41;3.13;;;2.53;;
30515;SDS011;17297;54.022;10.760;2023-06-24T13:00:06;2.25;;;2.00;;
30515;SDS011;17297;54.022;10.760;2023-06-24T13:02:32;2.47;;;2.10;;
30515;SDS011;17297;54.022;10.760;2023-06-24T13:04:58;3.97;;;2.30;;
30515;SDS011;17297;54.022;10.760;2023-06-24T13:07:23;2.53;;;2.00;;
30515;SDS011;17297;54.022;10.760;2023-06-24T13:09:50;2.75;;;2.20;;
30515;SDS011;17297;54.022;10.760;2023-06-24T13:12:15;2.42;;;2.20;;
30515;SDS011;17297;54.022;10.760;2023-06-24T13:14:41;2.83;;;2.45;;
30515;SDS011;17297;54.022;10.760;2023-06-24T13:17:06;2.75;;;2.38;;
30515;SDS011;17297;54.022;10.760;2023-06-24T13:19:31;3.03;;;2.17;;
30515;SDS011;17297;54.022;10.760;2023-06-24T13:21:59;2.15;;;1.95;;
30515;SDS011;17297;54.022;10.760;2023-06-24T13:24:25;3.13;;;2.10;;
30515;SDS011;17297;54.022;10.760;2023-06-24T13:26:51;2.33;;;1.90;;
30515;SDS011;17297;54.022;10.760;2023-06-24T13:29:17;3.22;;;2.20;;
30515;SDS011;17297;54.022;10.760;2023-06-24T13:31:46;2.25;;;2.05;;
30515;SDS011;17297;54.022;10.760;2023-06-24T13:34:12;4.22;;;2.25;;
30515;SDS011;17297;54.022;10.760;2023-06-24T13:36:37;2.25;;;1.92;;
30515;SDS011;17297;54.022;10.760;2023-06-24T13:39:05;3.10;;;2.38;;
30515;SDS011;17297;54.022;10.760;2023-06-24T13:41:32;2.33;;;1.90;;
30515;SDS011;17297;54.022;10.760;2023-06-24T13:43:58;2.40;;;2.20;;
30515;SDS011;17297;54.022;10.760;2023-06-24T13:46:24;2.95;;;2.33;;
30515;SDS011;17297;54.022;10.760;2023-06-24T13:48:50;2.13;;;1.92;;
30515;SDS011;17297;54.022;10.760;2023-06-24T13:51:16;2.85;;;2.40;;
30515;SDS011;17297;54.022;10.760;2023-06-24T13:53:42;2.00;;;1.80;;
30515;SDS011;17297;54.022;10.760;2023-06-24T13:56:08;2.97;;;2.65;;
30515;SDS011;17297;54.022;10.760;2023-06-24T13:58:33;2.15;;;1.88;;
30515;SDS011;17297;54.022;10.760;2023-06-24T14:00:58;2.30;;;2.10;;
30515;SDS011;17297;54.022;10.760;2023-06-24T14:03:24;3.40;;;2.50;;
30515;SDS011;17297;54.022;10.760;2023-06-24T14:05:50;2.55;;;2.30;;
30515;SDS011;17297;54.022;10.760;2023-06-24T14:08:16;3.10;;;2.00;;
30515;SDS011;17297;54.022;10.760;2023-06-24T14:10:41;2.50;;;2.10;;
30515;SDS011;17297;54.022;10.760;2023-06-24T14:13:06;3.20;;;2.17;;
30515;SDS011;17297;54.022;10.760;2023-06-24T14:15:33;2.97;;;2.10;;
30515;SDS011;17297;54.022;10.760;2023-06-24T14:17:58;2.50;;;1.95;;
30515;SDS011;17297;54.022;10.760;2023-06-24T14:20:23;2.72;;;2.30;;
30515;SDS011;17297;54.022;10.760;2023-06-24T14:22:50;2.53;;;2.25;;
30515;SDS011;17297;54.022;10.760;2023-06-24T14:25:16;2.42;;;2.22;;
30515;SDS011;17297;54.022;10.760;2023-06-24T14:27:42;2.25;;;2.05;;
30515;SDS011;17297;54.022;10.760;2023-06-24T14:30:07;2.05;;;1.83;;
30515;SDS011;17297;54.022;10.760;2023-06-24T14:32:33;2.30;;;2.10;;
30515;SDS011;17297;54.022;10.760;2023-06-24T14:34:58;2.95;;;2.15;;
30515;SDS011;17297;54.022;10.760;2023-06-24T14:37:23;2.30;;;2.10;;
30515;SDS011;17297;54.022;10.760;2023-06-24T14:39:49;2.60;;;2.25;;
30515;SDS011;17297;54.022;10.760;2023-06-24T14:42:14;2.10;;;1.90;;
30515;SDS011;17297;54.022;10.760;2023-06-24T14:44:41;2.22;;;1.88;;
30515;SDS011;17297;54.022;10.760;2023-06-24T14:47:06;4.07;;;1.88;;
30515;SDS011;17297;54.022;10.760;2023-06-24T14:49:32;3.15;;;2.35;;
30515;SDS011;17297;54.022;10.760;2023-06-24T14:51:57;2.65;;;2.20;;
30515;SDS011;17297;54.022;10.760;2023-06-24T14:54:22;2.30;;;1.77;;
30515;SDS011;17297;54.022;10.760;2023-06-24T14:56:48;3.05;;;2.55;;
30515;SDS011;17297;54.022;10.760;2023-06-24T14:59:13;2.20;;;2.00;;
30515;SDS011;17297;54.022;10.760;2023-06-24T15:01:39;2.30;;;2.05;;
30515;SDS011;17297;54.022;10.760;2023-06-24T15:04:04;2.22;;;2.03;;
30515;SDS011;17297;54.022;10.760;2023-06-24T15:06:29;2.40;;;2.13;;